Startpagina
METAR-TAF:

METAR-TAF

Vliegvelden :

Pilsen, Tsjechië

breedte: 49-40-31N, lengte: 13-16-29E, hoogte: 362 m

Actueel weer

Dit bericht is 23 minuten geleden gemaakt, om 11:00 UTC
Wind 3 kt uit het noordoosten, variërend tussen het noordnoordwesten en het oostzuidoosten
Temperatuur 12°C
Vochtigheid 67%
Druk 1020 hPa
Zicht 10 km of meer
Gebroken wolken op 7200 ft
Geheel bewolkt op 8300 ft
lichte regen

METAR: LKLN 311100Z AUTO 04003KT 330V110 9999 -RA BKN072 OVC083 12/06 Q1020

Tijdstip: 13:23 (11:23 UTC)


TAF: ontbreekt

Waarnemingen en weersverwachtingen van meer dan 4000 vliegvelden (METAR en TAF).

De beschikbare stations zijn de gele en rode punten op de kaart.

Ga met uw muis naar het station om de naam te zien.

Klik dan om waarnemingen en weersverwachtingen te zien.

kaart wijzigen: klik op de groene knoppen met een zwart kruis om in te zoomen, op de groene knop met een streepje om uit te zoomen of op de groene pijlen voor aangrenzende kaarten.


METAR-TAF: